sensor_id;sensor_type;location;lat;lon;timestamp;pressure;altitude;pressure_sealevel;temperature;humidity
43281;BME280;62175;49.416;8.690;2022-08-21T00:01:15;100563.51;;;23.75;45.15
43281;BME280;62175;49.416;8.690;2022-08-21T00:03:44;100567.47;;;23.79;44.91
43281;BME280;62175;49.416;8.690;2022-08-21T00:06:12;100566.86;;;23.73;44.97
43281;BME280;62175;49.416;8.690;2022-08-21T00:08:40;100564.73;;;23.87;45.14
43281;BME280;62175;49.416;8.690;2022-08-21T00:11:08;100561.85;;;23.63;45.01
43281;BME280;62175;49.416;8.690;2022-08-21T00:13:36;100561.27;;;23.75;45.25
43281;BME280;62175;49.416;8.690;2022-08-21T00:16:04;100563.34;;;23.94;44.79
43281;BME280;62175;49.416;8.690;2022-08-21T00:18:31;100560.77;;;24.04;44.80
43281;BME280;62175;49.416;8.690;2022-08-21T00:20:59;100556.58;;;23.40;44.90
43281;BME280;62175;49.416;8.690;2022-08-21T00:24:47;100554.43;;;24.00;44.50
43281;BME280;62175;49.416;8.690;2022-08-21T00:27:14;100555.33;;;23.59;44.56
43281;BME280;62175;49.416;8.690;2022-08-21T00:29:42;100548.46;;;23.41;44.78
43281;BME280;62175;49.416;8.690;2022-08-21T00:32:10;100546.08;;;23.66;44.85
43281;BME280;62175;49.416;8.690;2022-08-21T00:34:38;100547.67;;;23.53;45.36
43281;BME280;62175;49.416;8.690;2022-08-21T00:37:06;100549.71;;;23.57;46.11
43281;BME280;62175;49.416;8.690;2022-08-21T00:39:34;100549.72;;;23.60;45.95
43281;BME280;62175;49.416;8.690;2022-08-21T00:42:02;100545.04;;;23.64;46.29
43281;BME280;62175;49.416;8.690;2022-08-21T00:44:30;100543.17;;;23.70;45.52
43281;BME280;62175;49.416;8.690;2022-08-21T00:46:57;100543.20;;;23.52;46.07
43281;BME280;62175;49.416;8.690;2022-08-21T00:49:25;100540.86;;;23.73;46.06
43281;BME280;62175;49.416;8.690;2022-08-21T00:51:55;100541.08;;;23.29;46.06
43281;BME280;62175;49.416;8.690;2022-08-21T00:54:25;100542.11;;;23.31;45.98
43281;BME280;62175;49.416;8.690;2022-08-21T00:56:57;100542.75;;;23.38;46.09
43281;BME280;62175;49.416;8.690;2022-08-21T00:59:26;100544.48;;;23.38;46.23
43281;BME280;62175;49.416;8.690;2022-08-21T01:01:55;100543.98;;;23.31;46.64
43281;BME280;62175;49.416;8.690;2022-08-21T01:04:23;100543.87;;;23.44;46.87
43281;BME280;62175;49.416;8.690;2022-08-21T01:06:50;100545.71;;;23.20;46.62
43281;BME280;62175;49.416;8.690;2022-08-21T01:09:18;100547.13;;;23.31;46.26
43281;BME280;62175;49.416;8.690;2022-08-21T01:11:46;100546.17;;;23.19;46.12
43281;BME280;62175;49.416;8.690;2022-08-21T01:14:15;100548.37;;;23.29;46.51
43281;BME280;62175;49.416;8.690;2022-08-21T01:16:45;100548.29;;;23.23;46.20
43281;BME280;62175;49.416;8.690;2022-08-21T01:19:13;100550.82;;;23.20;46.84
43281;BME280;62175;49.416;8.690;2022-08-21T01:21:42;100550.32;;;23.02;46.19
43281;BME280;62175;49.416;8.690;2022-08-21T01:24:10;100547.30;;;22.92;45.88
43281;BME280;62175;49.416;8.690;2022-08-21T01:26:39;100545.37;;;23.06;46.48
43281;BME280;62175;49.416;8.690;2022-08-21T01:29:11;100546.67;;;23.06;46.36
43281;BME280;62175;49.416;8.690;2022-08-21T01:31:43;100544.82;;;23.17;46.69
43281;BME280;62175;49.416;8.690;2022-08-21T01:34:10;100547.48;;;23.02;46.57
43281;BME280;62175;49.416;8.690;2022-08-21T01:36:37;100548.60;;;23.09;46.38
43281;BME280;62175;49.416;8.690;2022-08-21T01:39:05;100546.84;;;23.02;46.57
43281;BME280;62175;49.416;8.690;2022-08-21T01:41:33;100546.37;;;22.92;46.85
43281;BME280;62175;49.416;8.690;2022-08-21T01:44:01;100546.25;;;23.09;46.80
43281;BME280;62175;49.416;8.690;2022-08-21T01:46:29;100542.52;;;22.88;46.36
43281;BME280;62175;49.416;8.690;2022-08-21T01:48:56;100543.05;;;22.88;46.54
43281;BME280;62175;49.416;8.690;2022-08-21T01:51:23;100542.59;;;23.43;46.51
43281;BME280;62175;49.416;8.690;2022-08-21T01:53:50;100545.01;;;22.84;46.58
43281;BME280;62175;49.416;8.690;2022-08-21T01:56:18;100546.83;;;23.07;46.39
43281;BME280;62175;49.416;8.690;2022-08-21T01:58:46;100546.72;;;23.10;46.85
43281;BME280;62175;49.416;8.690;2022-08-21T02:01:15;100541.81;;;22.89;46.58
43281;BME280;62175;49.416;8.690;2022-08-21T02:03:43;100536.43;;;22.61;46.78
43281;BME280;62175;49.416;8.690;2022-08-21T02:06:14;100531.64;;;22.80;46.46
43281;BME280;62175;49.416;8.690;2022-08-21T02:08:42;100531.13;;;23.17;47.01
43281;BME280;62175;49.416;8.690;2022-08-21T02:11:10;100531.16;;;22.90;46.58
43281;BME280;62175;49.416;8.690;2022-08-21T02:13:38;100532.47;;;22.95;47.25
43281;BME280;62175;49.416;8.690;2022-08-21T02:16:05;100527.45;;;22.76;47.12
43281;BME280;62175;49.416;8.690;2022-08-21T02:18:32;100526.86;;;22.98;47.01
43281;BME280;62175;49.416;8.690;2022-08-21T02:21:00;100525.60;;;23.04;46.65
43281;BME280;62175;49.416;8.690;2022-08-21T02:23:28;100520.84;;;23.03;46.82
43281;BME280;62175;49.416;8.690;2022-08-21T02:25:56;100521.73;;;22.72;46.74
43281;BME280;62175;49.416;8.690;2022-08-21T02:28:24;100520.18;;;22.54;46.97
43281;BME280;62175;49.416;8.690;2022-08-21T02:30:52;100521.86;;;22.67;46.60
43281;BME280;62175;49.416;8.690;2022-08-21T02:33:36;100519.83;;;23.21;47.10
43281;BME280;62175;49.416;8.690;2022-08-21T02:36:05;100517.38;;;22.40;47.26
43281;BME280;62175;49.416;8.690;2022-08-21T02:38:33;100516.42;;;22.78;46.62
43281;BME280;62175;49.416;8.690;2022-08-21T02:41:01;100515.29;;;22.54;47.00
43281;BME280;62175;49.416;8.690;2022-08-21T02:43:29;100513.30;;;22.54;47.16
43281;BME280;62175;49.416;8.690;2022-08-21T02:45:58;100513.92;;;22.66;47.05
43281;BME280;62175;49.416;8.690;2022-08-21T02:48:28;100513.60;;;22.73;47.21
43281;BME280;62175;49.416;8.690;2022-08-21T02:50:58;100513.29;;;22.74;47.19
43281;BME280;62175;49.416;8.690;2022-08-21T02:53:27;100511.05;;;22.85;47.21
43281;BME280;62175;49.416;8.690;2022-08-21T02:55:58;100512.50;;;22.89;46.93
43281;BME280;62175;49.416;8.690;2022-08-21T02:58:29;100510.80;;;22.59;47.10
43281;BME280;62175;49.416;8.690;2022-08-21T03:00:58;100508.78;;;22.39;46.74
43281;BME280;62175;49.416;8.690;2022-08-21T03:03:27;100509.53;;;22.57;46.59
43281;BME280;62175;49.416;8.690;2022-08-21T03:05:56;100509.57;;;22.56;46.68
43281;BME280;62175;49.416;8.690;2022-08-21T03:08:23;100508.85;;;22.52;47.00
43281;BME280;62175;49.416;8.690;2022-08-21T03:10:52;100508.96;;;22.75;46.16
43281;BME280;62175;49.416;8.690;2022-08-21T03:13:20;100507.86;;;22.55;46.79
43281;BME280;62175;49.416;8.690;2022-08-21T03:15:49;100510.87;;;22.55;46.65
43281;BME280;62175;49.416;8.690;2022-08-21T03:18:16;100516.36;;;22.67;47.39
43281;BME280;62175;49.416;8.690;2022-08-21T03:20:45;100515.02;;;22.38;47.17
43281;BME280;62175;49.416;8.690;2022-08-21T03:23:13;100515.21;;;22.39;46.69
43281;BME280;62175;49.416;8.690;2022-08-21T03:26:07;100521.81;;;22.75;47.58
43281;BME280;62175;49.416;8.690;2022-08-21T03:28:35;100518.47;;;22.53;47.47
43281;BME280;62175;49.416;8.690;2022-08-21T03:33:20;100524.26;;;23.04;47.99
43281;BME280;62175;49.416;8.690;2022-08-21T03:35:54;100517.94;;;22.71;47.69
43281;BME280;62175;49.416;8.690;2022-08-21T03:38:22;100517.18;;;22.62;48.40
43281;BME280;62175;49.416;8.690;2022-08-21T03:40:50;100518.71;;;22.27;48.36
43281;BME280;62175;49.416;8.690;2022-08-21T03:43:18;100523.33;;;22.32;48.28
43281;BME280;62175;49.416;8.690;2022-08-21T03:45:45;100523.60;;;22.33;48.15
43281;BME280;62175;49.416;8.690;2022-08-21T03:48:13;100525.13;;;22.58;47.64
43281;BME280;62175;49.416;8.690;2022-08-21T03:50:43;100524.56;;;22.13;48.60
43281;BME280;62175;49.416;8.690;2022-08-21T03:53:13;100525.66;;;22.41;47.68
43281;BME280;62175;49.416;8.690;2022-08-21T03:55:41;100527.35;;;22.54;47.56
43281;BME280;62175;49.416;8.690;2022-08-21T03:58:10;100532.36;;;22.21;47.99
43281;BME280;62175;49.416;8.690;2022-08-21T04:00:37;100533.72;;;22.25;48.30
43281;BME280;62175;49.416;8.690;2022-08-21T04:03:05;100535.96;;;22.23;48.53
43281;BME280;62175;49.416;8.690;2022-08-21T04:05:32;100539.28;;;22.17;48.70
43281;BME280;62175;49.416;8.690;2022-08-21T04:08:01;100541.28;;;22.41;48.21
43281;BME280;62175;49.416;8.690;2022-08-21T04:10:31;100542.79;;;22.10;48.05
43281;BME280;62175;49.416;8.690;2022-08-21T04:12:58;100547.29;;;21.99;48.54
43281;BME280;62175;49.416;8.690;2022-08-21T04:15:27;100549.74;;;22.34;48.51
43281;BME280;62175;49.416;8.690;2022-08-21T04:17:55;100551.52;;;22.03;48.54
43281;BME280;62175;49.416;8.690;2022-08-21T04:20:23;100554.13;;;22.17;48.64
43281;BME280;62175;49.416;8.690;2022-08-21T04:22:51;100556.48;;;22.00;48.53
43281;BME280;62175;49.416;8.690;2022-08-21T04:25:21;100557.15;;;21.42;48.64
43281;BME280;62175;49.416;8.690;2022-08-21T04:27:49;100559.10;;;21.98;48.40
43281;BME280;62175;49.416;8.690;2022-08-21T04:30:17;100559.56;;;21.96;48.41
43281;BME280;62175;49.416;8.690;2022-08-21T04:32:45;100564.52;;;21.91;48.27
43281;BME280;62175;49.416;8.690;2022-08-21T04:35:14;100564.36;;;21.93;48.66
43281;BME280;62175;49.416;8.690;2022-08-21T04:37:42;100567.09;;;22.20;48.60
43281;BME280;62175;49.416;8.690;2022-08-21T04:40:12;100570.19;;;22.10;48.40
43281;BME280;62175;49.416;8.690;2022-08-21T04:42:43;100573.74;;;22.02;49.08
43281;BME280;62175;49.416;8.690;2022-08-21T04:45:18;100578.66;;;22.02;48.99
43281;BME280;62175;49.416;8.690;2022-08-21T04:47:45;100581.53;;;22.09;49.08
43281;BME280;62175;49.416;8.690;2022-08-21T04:50:13;100579.82;;;22.13;49.21
43281;BME280;62175;49.416;8.690;2022-08-21T04:52:41;100578.90;;;22.08;48.93
43281;BME280;62175;49.416;8.690;2022-08-21T04:55:09;100584.45;;;22.07;49.76
43281;BME280;62175;49.416;8.690;2022-08-21T04:57:36;100584.57;;;22.07;49.13
43281;BME280;62175;49.416;8.690;2022-08-21T05:00:06;100587.48;;;21.92;49.27
43281;BME280;62175;49.416;8.690;2022-08-21T05:02:33;100586.82;;;22.00;49.03
43281;BME280;62175;49.416;8.690;2022-08-21T05:05:00;100585.97;;;22.05;49.23
43281;BME280;62175;49.416;8.690;2022-08-21T05:07:29;100586.54;;;21.82;49.56
43281;BME280;62175;49.416;8.690;2022-08-21T05:10:00;100591.68;;;21.66;49.41
43281;BME280;62175;49.416;8.690;2022-08-21T05:12:27;100591.86;;;21.48;49.74
43281;BME280;62175;49.416;8.690;2022-08-21T05:14:54;100594.66;;;21.72;49.78
43281;BME280;62175;49.416;8.690;2022-08-21T05:17:22;100592.35;;;21.98;49.10
43281;BME280;62175;49.416;8.690;2022-08-21T05:19:50;100593.92;;;21.83;48.85
43281;BME280;62175;49.416;8.690;2022-08-21T05:22:21;100595.94;;;21.85;49.23
43281;BME280;62175;49.416;8.690;2022-08-21T05:25:17;100597.57;;;22.17;49.08
43281;BME280;62175;49.416;8.690;2022-08-21T05:27:44;100601.68;;;21.95;48.99
43281;BME280;62175;49.416;8.690;2022-08-21T05:30:12;100598.49;;;21.63;49.37
43281;BME280;62175;49.416;8.690;2022-08-21T05:32:40;100595.04;;;21.73;49.99
43281;BME280;62175;49.416;8.690;2022-08-21T05:35:08;100590.98;;;21.98;49.25
43281;BME280;62175;49.416;8.690;2022-08-21T05:37:36;100591.26;;;21.55;49.33
43281;BME280;62175;49.416;8.690;2022-08-21T05:40:05;100590.79;;;21.92;49.05
43281;BME280;62175;49.416;8.690;2022-08-21T05:42:33;100592.99;;;21.83;50.15
43281;BME280;62175;49.416;8.690;2022-08-21T05:45:01;100593.51;;;21.74;49.22
43281;BME280;62175;49.416;8.690;2022-08-21T05:47:28;100597.51;;;21.88;49.76
43281;BME280;62175;49.416;8.690;2022-08-21T05:49:56;100597.65;;;21.74;48.84
43281;BME280;62175;49.416;8.690;2022-08-21T05:52:23;100595.15;;;21.92;49.40
43281;BME280;62175;49.416;8.690;2022-08-21T05:54:51;100592.29;;;21.89;49.05
43281;BME280;62175;49.416;8.690;2022-08-21T05:57:18;100594.41;;;21.84;48.95
43281;BME280;62175;49.416;8.690;2022-08-21T05:59:45;100598.29;;;21.75;49.34
43281;BME280;62175;49.416;8.690;2022-08-21T06:02:12;100599.64;;;21.90;49.35
43281;BME280;62175;49.416;8.690;2022-08-21T06:04:40;100603.77;;;21.75;49.14
43281;BME280;62175;49.416;8.690;2022-08-21T06:07:08;100598.98;;;21.98;49.07
43281;BME280;62175;49.416;8.690;2022-08-21T06:09:35;100599.91;;;21.79;49.19
43281;BME280;62175;49.416;8.690;2022-08-21T06:12:04;100602.43;;;22.09;49.32
43281;BME280;62175;49.416;8.690;2022-08-21T06:14:31;100600.59;;;22.19;48.36
43281;BME280;62175;49.416;8.690;2022-08-21T06:17:02;100602.81;;;22.09;48.42
43281;BME280;62175;49.416;8.690;2022-08-21T06:19:29;100602.80;;;22.36;49.15
43281;BME280;62175;49.416;8.690;2022-08-21T06:21:56;100603.24;;;22.44;48.53
43281;BME280;62175;49.416;8.690;2022-08-21T06:24:24;100605.77;;;22.08;48.11
43281;BME280;62175;49.416;8.690;2022-08-21T06:26:52;100608.70;;;22.68;47.68
43281;BME280;62175;49.416;8.690;2022-08-21T06:29:20;100612.20;;;22.41;47.47
43281;BME280;62175;49.416;8.690;2022-08-21T06:31:48;100613.10;;;22.13;47.97
43281;BME280;62175;49.416;8.690;2022-08-21T06:34:16;100613.91;;;22.54;47.27
43281;BME280;62175;49.416;8.690;2022-08-21T06:36:45;100612.11;;;22.48;47.84
43281;BME280;62175;49.416;8.690;2022-08-21T06:39:12;100609.00;;;22.61;47.39
43281;BME280;62175;49.416;8.690;2022-08-21T06:41:40;100608.43;;;22.65;47.22
43281;BME280;62175;49.416;8.690;2022-08-21T06:44:07;100610.79;;;22.65;47.58
43281;BME280;62175;49.416;8.690;2022-08-21T06:46:35;100607.62;;;22.34;47.58
43281;BME280;62175;49.416;8.690;2022-08-21T06:49:03;100607.02;;;22.78;47.28
43281;BME280;62175;49.416;8.690;2022-08-21T06:51:30;100606.73;;;22.79;47.31
43281;BME280;62175;49.416;8.690;2022-08-21T06:53:57;100607.35;;;22.55;47.66
43281;BME280;62175;49.416;8.690;2022-08-21T06:56:26;100608.28;;;22.67;46.91
43281;BME280;62175;49.416;8.690;2022-08-21T06:58:53;100609.09;;;22.65;47.19
43281;BME280;62175;49.416;8.690;2022-08-21T07:01:23;100608.86;;;22.66;46.93
43281;BME280;62175;49.416;8.690;2022-08-21T07:03:52;100607.09;;;22.59;47.28
43281;BME280;62175;49.416;8.690;2022-08-21T07:06:19;100604.56;;;22.66;46.94
43281;BME280;62175;49.416;8.690;2022-08-21T07:08:46;100604.17;;;22.91;48.14
43281;BME280;62175;49.416;8.690;2022-08-21T07:11:18;100604.95;;;22.86;47.28
43281;BME280;62175;49.416;8.690;2022-08-21T07:13:45;100604.68;;;22.88;46.92
43281;BME280;62175;49.416;8.690;2022-08-21T07:16:13;100604.18;;;23.00;46.77
43281;BME280;62175;49.416;8.690;2022-08-21T07:18:40;100599.65;;;23.17;45.97
43281;BME280;62175;49.416;8.690;2022-08-21T07:21:08;100600.92;;;22.78;46.49
43281;BME280;62175;49.416;8.690;2022-08-21T07:23:39;100596.54;;;22.92;46.97
43281;BME280;62175;49.416;8.690;2022-08-21T07:26:07;100593.39;;;22.81;46.33
43281;BME280;62175;49.416;8.690;2022-08-21T07:28:35;100589.07;;;23.20;46.30
43281;BME280;62175;49.416;8.690;2022-08-21T07:31:03;100585.29;;;23.11;45.87
43281;BME280;62175;49.416;8.690;2022-08-21T07:33:32;100582.66;;;23.15;45.82
43281;BME280;62175;49.416;8.690;2022-08-21T07:36:00;100580.30;;;23.16;45.79
43281;BME280;62175;49.416;8.690;2022-08-21T07:38:44;100578.65;;;23.13;46.10
43281;BME280;62175;49.416;8.690;2022-08-21T07:41:17;100582.37;;;23.23;46.24
43281;BME280;62175;49.416;8.690;2022-08-21T07:43:44;100579.92;;;23.56;46.87
43281;BME280;62175;49.416;8.690;2022-08-21T07:46:13;100579.48;;;23.70;44.83
43281;BME280;62175;49.416;8.690;2022-08-21T07:48:40;100579.70;;;23.47;45.96
43281;BME280;62175;49.416;8.690;2022-08-21T07:51:11;100573.70;;;23.57;45.77
43281;BME280;62175;49.416;8.690;2022-08-21T07:53:40;100575.18;;;23.45;45.48
43281;BME280;62175;49.416;8.690;2022-08-21T07:56:07;100576.33;;;23.62;45.94
43281;BME280;62175;49.416;8.690;2022-08-21T07:58:35;100576.21;;;23.54;45.47
43281;BME280;62175;49.416;8.690;2022-08-21T08:01:14;100580.38;;;23.60;44.47
43281;BME280;62175;49.416;8.690;2022-08-21T08:03:48;100582.44;;;23.76;45.40
43281;BME280;62175;49.416;8.690;2022-08-21T08:06:16;100580.86;;;23.52;44.47
43281;BME280;62175;49.416;8.690;2022-08-21T08:08:43;100575.93;;;23.84;44.43
43281;BME280;62175;49.416;8.690;2022-08-21T08:11:12;100574.12;;;23.78;44.62
43281;BME280;62175;49.416;8.690;2022-08-21T08:13:41;100570.68;;;24.01;45.06
43281;BME280;62175;49.416;8.690;2022-08-21T08:16:08;100576.10;;;23.51;44.88
43281;BME280;62175;49.416;8.690;2022-08-21T08:18:45;100576.78;;;23.94;44.79
43281;BME280;62175;49.416;8.690;2022-08-21T08:21:13;100567.59;;;24.28;46.40
43281;BME280;62175;49.416;8.690;2022-08-21T08:23:40;100567.07;;;23.75;44.73
43281;BME280;62175;49.416;8.690;2022-08-21T08:26:08;100563.11;;;23.59;45.72
43281;BME280;62175;49.416;8.690;2022-08-21T08:28:36;100562.78;;;23.84;48.38
43281;BME280;62175;49.416;8.690;2022-08-21T08:31:10;100563.45;;;24.11;46.54
43281;BME280;62175;49.416;8.690;2022-08-21T08:33:37;100562.02;;;24.01;45.74
43281;BME280;62175;49.416;8.690;2022-08-21T08:36:14;100557.01;;;24.34;44.50
43281;BME280;62175;49.416;8.690;2022-08-21T08:38:47;100557.39;;;24.09;46.04
43281;BME280;62175;49.416;8.690;2022-08-21T08:41:19;100553.59;;;23.91;43.81
43281;BME280;62175;49.416;8.690;2022-08-21T08:43:52;100546.81;;;24.24;46.85
43281;BME280;62175;49.416;8.690;2022-08-21T08:46:31;100542.81;;;24.29;47.19
43281;BME280;62175;49.416;8.690;2022-08-21T08:49:08;100538.90;;;24.58;43.56
43281;BME280;62175;49.416;8.690;2022-08-21T08:51:44;100536.59;;;24.37;45.54
43281;BME280;62175;49.416;8.690;2022-08-21T08:57:03;100532.27;;;24.50;48.81
43281;BME280;62175;49.416;8.690;2022-08-21T08:59:40;100528.77;;;24.46;45.37
43281;BME280;62175;49.416;8.690;2022-08-21T09:02:11;100531.41;;;24.66;48.80
43281;BME280;62175;49.416;8.690;2022-08-21T09:04:48;100526.46;;;24.62;44.89
43281;BME280;62175;49.416;8.690;2022-08-21T09:07:22;100526.05;;;24.62;44.57
43281;BME280;62175;49.416;8.690;2022-08-21T09:10:03;100522.35;;;24.70;45.19
43281;BME280;62175;49.416;8.690;2022-08-21T09:12:45;100517.56;;;24.51;46.06
43281;BME280;62175;49.416;8.690;2022-08-21T09:15:22;100513.86;;;24.55;45.92
43281;BME280;62175;49.416;8.690;2022-08-21T09:18:07;100511.15;;;24.81;47.21
43281;BME280;62175;49.416;8.690;2022-08-21T09:20:43;100507.69;;;24.71;45.41
43281;BME280;62175;49.416;8.690;2022-08-21T09:23:25;100504.78;;;24.76;44.27
43281;BME280;62175;49.416;8.690;2022-08-21T09:26:04;100502.70;;;24.72;45.36
43281;BME280;62175;49.416;8.690;2022-08-21T09:28:34;100500.35;;;24.52;44.94
43281;BME280;62175;49.416;8.690;2022-08-21T09:31:06;100499.42;;;24.75;46.37
43281;BME280;62175;49.416;8.690;2022-08-21T09:33:34;100496.62;;;24.79;46.81
43281;BME280;62175;49.416;8.690;2022-08-21T09:36:02;100497.10;;;24.79;48.35
43281;BME280;62175;49.416;8.690;2022-08-21T09:38:33;100493.28;;;24.81;46.81
43281;BME280;62175;49.416;8.690;2022-08-21T09:41:03;100496.38;;;24.74;44.62
43281;BME280;62175;49.416;8.690;2022-08-21T09:43:33;100498.82;;;24.65;44.94
43281;BME280;62175;49.416;8.690;2022-08-21T09:46:07;100499.51;;;24.57;44.97
43281;BME280;62175;49.416;8.690;2022-08-21T09:48:45;100494.95;;;24.84;45.96
43281;BME280;62175;49.416;8.690;2022-08-21T09:51:16;100493.47;;;24.64;44.72
43281;BME280;62175;49.416;8.690;2022-08-21T09:53:46;100495.79;;;24.91;45.78
43281;BME280;62175;49.416;8.690;2022-08-21T09:56:29;100497.10;;;24.68;46.04
43281;BME280;62175;49.416;8.690;2022-08-21T09:58:56;100499.12;;;24.92;43.25
43281;BME280;62175;49.416;8.690;2022-08-21T10:01:25;100494.79;;;24.89;40.49
43281;BME280;62175;49.416;8.690;2022-08-21T10:04:03;100496.97;;;24.94;43.96
43281;BME280;62175;49.416;8.690;2022-08-21T10:06:30;100493.35;;;24.86;42.05
43281;BME280;62175;49.416;8.690;2022-08-21T10:09:05;100490.95;;;24.58;42.83
43281;BME280;62175;49.416;8.690;2022-08-21T10:11:34;100490.50;;;24.70;44.01
43281;BME280;62175;49.416;8.690;2022-08-21T10:14:10;100484.92;;;24.71;42.90
43281;BME280;62175;49.416;8.690;2022-08-21T10:16:48;100480.43;;;24.66;42.63
43281;BME280;62175;49.416;8.690;2022-08-21T10:19:24;100476.35;;;24.56;42.67
43281;BME280;62175;49.416;8.690;2022-08-21T10:22:02;100474.14;;;24.89;44.77
43281;BME280;62175;49.416;8.690;2022-08-21T10:24:41;100475.62;;;25.09;41.98
43281;BME280;62175;49.416;8.690;2022-08-21T10:27:22;100474.67;;;24.97;42.85
43281;BME280;62175;49.416;8.690;2022-08-21T10:29:58;100476.75;;;25.21;42.30
43281;BME280;62175;49.416;8.690;2022-08-21T10:32:42;100477.72;;;25.07;40.84
43281;BME280;62175;49.416;8.690;2022-08-21T10:35:13;100470.54;;;25.04;41.23
43281;BME280;62175;49.416;8.690;2022-08-21T10:37:55;100469.66;;;25.00;42.70
43281;BME280;62175;49.416;8.690;2022-08-21T10:40:30;100466.35;;;25.31;40.75
43281;BME280;62175;49.416;8.690;2022-08-21T10:43:09;100468.38;;;25.07;40.63
43281;BME280;62175;49.416;8.690;2022-08-21T10:45:54;100467.84;;;25.09;43.96
43281;BME280;62175;49.416;8.690;2022-08-21T10:48:28;100462.69;;;25.32;43.67
43281;BME280;62175;49.416;8.690;2022-08-21T10:51:04;100460.86;;;25.09;41.68
43281;BME280;62175;49.416;8.690;2022-08-21T10:53:42;100467.66;;;25.06;41.07
43281;BME280;62175;49.416;8.690;2022-08-21T10:56:18;100461.97;;;25.11;41.26
43281;BME280;62175;49.416;8.690;2022-08-21T10:58:57;100458.25;;;25.20;40.25
43281;BME280;62175;49.416;8.690;2022-08-21T11:01:31;100458.30;;;24.95;40.86
43281;BME280;62175;49.416;8.690;2022-08-21T11:04:11;100459.02;;;25.12;42.82
43281;BME280;62175;49.416;8.690;2022-08-21T11:06:42;100457.60;;;25.14;41.16
43281;BME280;62175;49.416;8.690;2022-08-21T11:09:20;100450.61;;;25.25;42.63
43281;BME280;62175;49.416;8.690;2022-08-21T11:11:58;100446.41;;;25.44;42.06
43281;BME280;62175;49.416;8.690;2022-08-21T11:14:47;100446.36;;;25.17;40.87
43281;BME280;62175;49.416;8.690;2022-08-21T11:17:27;100442.25;;;25.19;40.23
43281;BME280;62175;49.416;8.690;2022-08-21T11:20:02;100440.19;;;25.76;40.14
43281;BME280;62175;49.416;8.690;2022-08-21T11:22:38;100434.28;;;25.72;39.32
43281;BME280;62175;49.416;8.690;2022-08-21T11:25:13;100436.13;;;25.16;40.01
43281;BME280;62175;49.416;8.690;2022-08-21T11:27:46;100425.76;;;25.46;38.78
43281;BME280;62175;49.416;8.690;2022-08-21T11:30:16;100423.20;;;25.77;40.56
43281;BME280;62175;49.416;8.690;2022-08-21T11:32:57;100419.01;;;25.54;40.85
43281;BME280;62175;49.416;8.690;2022-08-21T11:35:34;100416.27;;;25.72;41.44
43281;BME280;62175;49.416;8.690;2022-08-21T11:38:18;100420.42;;;25.88;40.33
43281;BME280;62175;49.416;8.690;2022-08-21T11:41:02;100414.68;;;25.75;39.52
43281;BME280;62175;49.416;8.690;2022-08-21T11:43:37;100412.87;;;25.72;41.69
43281;BME280;62175;49.416;8.690;2022-08-21T11:46:14;100412.30;;;25.72;41.07
43281;BME280;62175;49.416;8.690;2022-08-21T11:48:50;100409.07;;;25.87;41.76
43281;BME280;62175;49.416;8.690;2022-08-21T11:51:22;100415.50;;;25.78;41.02
43281;BME280;62175;49.416;8.690;2022-08-21T11:54:01;100408.95;;;26.20;39.79
43281;BME280;62175;49.416;8.690;2022-08-21T11:56:34;100412.64;;;25.64;41.02
43281;BME280;62175;49.416;8.690;2022-08-21T11:59:08;100412.41;;;26.24;38.88
43281;BME280;62175;49.416;8.690;2022-08-21T12:01:40;100408.54;;;26.05;39.31
43281;BME280;62175;49.416;8.690;2022-08-21T12:04:18;100404.21;;;25.85;40.10
43281;BME280;62175;49.416;8.690;2022-08-21T12:06:49;100392.12;;;25.85;40.66
43281;BME280;62175;49.416;8.690;2022-08-21T12:09:35;100390.19;;;25.81;41.84
43281;BME280;62175;49.416;8.690;2022-08-21T12:12:05;100395.12;;;26.08;42.52
43281;BME280;62175;49.416;8.690;2022-08-21T12:14:39;100392.49;;;25.80;38.43
43281;BME280;62175;49.416;8.690;2022-08-21T12:17:09;100390.14;;;25.89;38.30
43281;BME280;62175;49.416;8.690;2022-08-21T12:19:44;100390.57;;;25.71;40.79
43281;BME280;62175;49.416;8.690;2022-08-21T12:22:13;100388.00;;;25.97;41.33
43281;BME280;62175;49.416;8.690;2022-08-21T12:24:43;100385.62;;;25.65;40.57
43281;BME280;62175;49.416;8.690;2022-08-21T12:27:22;100386.39;;;25.96;41.55
43281;BME280;62175;49.416;8.690;2022-08-21T12:29:52;100379.32;;;25.76;39.81
43281;BME280;62175;49.416;8.690;2022-08-21T12:32:26;100387.03;;;25.93;39.17
43281;BME280;62175;49.416;8.690;2022-08-21T12:34:58;100380.58;;;26.11;39.37
43281;BME280;62175;49.416;8.690;2022-08-21T12:37:40;100386.30;;;25.97;38.85
43281;BME280;62175;49.416;8.690;2022-08-21T12:40:23;100383.13;;;25.98;38.22
43281;BME280;62175;49.416;8.690;2022-08-21T12:42:54;100377.63;;;25.86;38.61
43281;BME280;62175;49.416;8.690;2022-08-21T12:45:28;100372.86;;;26.42;39.86
43281;BME280;62175;49.416;8.690;2022-08-21T12:47:58;100368.73;;;26.01;39.57
43281;BME280;62175;49.416;8.690;2022-08-21T12:50:34;100365.30;;;25.90;39.28
43281;BME280;62175;49.416;8.690;2022-08-21T12:53:07;100368.13;;;25.71;41.02
43281;BME280;62175;49.416;8.690;2022-08-21T12:55:41;100366.94;;;25.59;40.89
43281;BME280;62175;49.416;8.690;2022-08-21T12:58:20;100361.52;;;25.53;41.34
43281;BME280;62175;49.416;8.690;2022-08-21T13:00:51;100362.87;;;25.73;39.98
43281;BME280;62175;49.416;8.690;2022-08-21T13:03:19;100365.23;;;25.70;39.32
43281;BME280;62175;49.416;8.690;2022-08-21T13:05:48;100365.01;;;25.81;38.31
43281;BME280;62175;49.416;8.690;2022-08-21T13:08:15;100363.11;;;25.63;38.15
43281;BME280;62175;49.416;8.690;2022-08-21T13:10:44;100357.78;;;25.81;40.01
43281;BME280;62175;49.416;8.690;2022-08-21T13:13:20;100357.23;;;25.64;42.52
43281;BME280;62175;49.416;8.690;2022-08-21T13:15:48;100356.70;;;25.56;43.21